sensor_id;sensor_type;location;lat;lon;timestamp;temperature;humidity
1379;DHT22;683;48.738;9.226;2023-04-03T00:00:58;3.30;99.90
1379;DHT22;683;48.738;9.226;2023-04-03T00:03:25;3.30;99.90
1379;DHT22;683;48.738;9.226;2023-04-03T00:05:54;3.20;99.90
1379;DHT22;683;48.738;9.226;2023-04-03T00:08:23;3.20;99.90
1379;DHT22;683;48.738;9.226;2023-04-03T00:10:52;3.20;99.90
1379;DHT22;683;48.738;9.226;2023-04-03T00:13:19;3.20;99.90
1379;DHT22;683;48.738;9.226;2023-04-03T00:15:46;3.20;99.90
1379;DHT22;683;48.738;9.226;2023-04-03T00:18:13;3.10;99.90
1379;DHT22;683;48.738;9.226;2023-04-03T00:20:41;3.10;99.90
1379;DHT22;683;48.738;9.226;2023-04-03T00:23:08;3.10;99.90
1379;DHT22;683;48.738;9.226;2023-04-03T00:25:38;3.10;99.90
1379;DHT22;683;48.738;9.226;2023-04-03T00:28:07;3.00;99.90
1379;DHT22;683;48.738;9.226;2023-04-03T00:30:34;3.00;99.90
1379;DHT22;683;48.738;9.226;2023-04-03T00:33:02;3.00;99.90
1379;DHT22;683;48.738;9.226;2023-04-03T00:35:29;3.00;99.90
1379;DHT22;683;48.738;9.226;2023-04-03T00:37:56;3.00;99.90
1379;DHT22;683;48.738;9.226;2023-04-03T00:40:34;3.00;99.90
1379;DHT22;683;48.738;9.226;2023-04-03T00:43:02;3.00;99.90
1379;DHT22;683;48.738;9.226;2023-04-03T00:45:35;2.90;99.90
1379;DHT22;683;48.738;9.226;2023-04-03T00:48:05;2.90;99.90
1379;DHT22;683;48.738;9.226;2023-04-03T00:50:36;2.90;99.90
1379;DHT22;683;48.738;9.226;2023-04-03T00:53:05;3.00;99.90
1379;DHT22;683;48.738;9.226;2023-04-03T00:55:38;3.00;99.90
1379;DHT22;683;48.738;9.226;2023-04-03T00:58:06;3.00;99.90
1379;DHT22;683;48.738;9.226;2023-04-03T01:00:37;3.00;99.90
1379;DHT22;683;48.738;9.226;2023-04-03T01:03:05;3.00;99.90
1379;DHT22;683;48.738;9.226;2023-04-03T01:05:36;3.00;99.90
1379;DHT22;683;48.738;9.226;2023-04-03T01:08:04;3.00;99.90
1379;DHT22;683;48.738;9.226;2023-04-03T01:10:33;2.90;99.90
1379;DHT22;683;48.738;9.226;2023-04-03T01:13:00;3.00;99.90
1379;DHT22;683;48.738;9.226;2023-04-03T01:15:28;3.00;99.90
1379;DHT22;683;48.738;9.226;2023-04-03T01:18:00;3.00;99.90
1379;DHT22;683;48.738;9.226;2023-04-03T01:26:36;2.90;99.90
1379;DHT22;683;48.738;9.226;2023-04-03T01:29:04;2.90;99.90
1379;DHT22;683;48.738;9.226;2023-04-03T01:31:48;2.90;99.90
1379;DHT22;683;48.738;9.226;2023-04-03T01:34:15;2.90;99.90
1379;DHT22;683;48.738;9.226;2023-04-03T01:36:44;2.90;99.90
1379;DHT22;683;48.738;9.226;2023-04-03T01:39:13;2.80;99.90
1379;DHT22;683;48.738;9.226;2023-04-03T01:41:41;2.80;99.90
1379;DHT22;683;48.738;9.226;2023-04-03T01:44:20;2.80;99.90
1379;DHT22;683;48.738;9.226;2023-04-03T01:46:49;2.80;99.90
1379;DHT22;683;48.738;9.226;2023-04-03T01:49:17;2.80;99.90
1379;DHT22;683;48.738;9.226;2023-04-03T01:51:45;2.70;99.90
1379;DHT22;683;48.738;9.226;2023-04-03T01:54:12;2.70;99.90
1379;DHT22;683;48.738;9.226;2023-04-03T01:56:39;2.70;99.90
1379;DHT22;683;48.738;9.226;2023-04-03T01:59:07;2.70;99.90
1379;DHT22;683;48.738;9.226;2023-04-03T02:01:35;2.70;99.90
1379;DHT22;683;48.738;9.226;2023-04-03T02:04:03;2.70;99.90
1379;DHT22;683;48.738;9.226;2023-04-03T02:06:31;2.80;99.90
1379;DHT22;683;48.738;9.226;2023-04-03T02:08:58;2.70;99.90
1379;DHT22;683;48.738;9.226;2023-04-03T02:11:25;2.70;99.90
1379;DHT22;683;48.738;9.226;2023-04-03T02:13:55;2.70;99.90
1379;DHT22;683;48.738;9.226;2023-04-03T02:16:24;2.70;99.90
1379;DHT22;683;48.738;9.226;2023-04-03T02:18:51;2.70;99.90
1379;DHT22;683;48.738;9.226;2023-04-03T02:21:20;2.70;99.90
1379;DHT22;683;48.738;9.226;2023-04-03T02:23:47;2.70;99.90
1379;DHT22;683;48.738;9.226;2023-04-03T02:26:19;2.70;99.90
1379;DHT22;683;48.738;9.226;2023-04-03T02:28:47;2.70;99.90
1379;DHT22;683;48.738;9.226;2023-04-03T02:31:14;2.70;99.90
1379;DHT22;683;48.738;9.226;2023-04-03T02:33:43;2.80;99.90
1379;DHT22;683;48.738;9.226;2023-04-03T02:36:13;2.80;99.90
1379;DHT22;683;48.738;9.226;2023-04-03T02:38:45;2.80;99.90
1379;DHT22;683;48.738;9.226;2023-04-03T02:41:16;2.80;99.90
1379;DHT22;683;48.738;9.226;2023-04-03T02:43:43;2.80;99.90
1379;DHT22;683;48.738;9.226;2023-04-03T02:46:11;2.90;99.90
1379;DHT22;683;48.738;9.226;2023-04-03T02:48:41;2.90;99.90
1379;DHT22;683;48.738;9.226;2023-04-03T02:51:08;2.90;99.90
1379;DHT22;683;48.738;9.226;2023-04-03T02:53:35;2.90;99.90
1379;DHT22;683;48.738;9.226;2023-04-03T02:56:10;2.90;99.90
1379;DHT22;683;48.738;9.226;2023-04-03T02:58:37;2.90;99.90
1379;DHT22;683;48.738;9.226;2023-04-03T03:01:06;2.90;99.90
1379;DHT22;683;48.738;9.226;2023-04-03T03:03:34;2.90;99.90
1379;DHT22;683;48.738;9.226;2023-04-03T03:06:02;3.00;99.90
1379;DHT22;683;48.738;9.226;2023-04-03T03:08:31;3.00;99.90
1379;DHT22;683;48.738;9.226;2023-04-03T03:10:58;3.00;99.90
1379;DHT22;683;48.738;9.226;2023-04-03T03:13:27;3.00;99.90
1379;DHT22;683;48.738;9.226;2023-04-03T03:15:55;3.00;99.70
1379;DHT22;683;48.738;9.226;2023-04-03T03:18:22;3.00;99.80
1379;DHT22;683;48.738;9.226;2023-04-03T03:20:53;3.00;99.60
1379;DHT22;683;48.738;9.226;2023-04-03T03:23:21;3.00;99.50
1379;DHT22;683;48.738;9.226;2023-04-03T03:25:54;3.00;99.40
1379;DHT22;683;48.738;9.226;2023-04-03T03:28:22;3.00;99.20
1379;DHT22;683;48.738;9.226;2023-04-03T03:30:51;3.00;99.20
1379;DHT22;683;48.738;9.226;2023-04-03T03:33:21;3.00;99.20
1379;DHT22;683;48.738;9.226;2023-04-03T03:35:49;3.00;99.00
1379;DHT22;683;48.738;9.226;2023-04-03T03:38:17;3.00;99.00
1379;DHT22;683;48.738;9.226;2023-04-03T03:40:44;3.00;99.20
1379;DHT22;683;48.738;9.226;2023-04-03T03:43:11;3.00;98.90
1379;DHT22;683;48.738;9.226;2023-04-03T03:45:38;3.00;98.60
1379;DHT22;683;48.738;9.226;2023-04-03T03:48:09;2.90;98.60
1379;DHT22;683;48.738;9.226;2023-04-03T03:50:36;2.90;98.80
1379;DHT22;683;48.738;9.226;2023-04-03T03:53:03;3.00;98.80
1379;DHT22;683;48.738;9.226;2023-04-03T03:55:31;2.90;98.80
1379;DHT22;683;48.738;9.226;2023-04-03T03:57:58;3.00;99.00
1379;DHT22;683;48.738;9.226;2023-04-03T04:00:29;2.90;98.70
1379;DHT22;683;48.738;9.226;2023-04-03T04:02:57;3.00;98.60
1379;DHT22;683;48.738;9.226;2023-04-03T04:05:27;3.00;98.40
1379;DHT22;683;48.738;9.226;2023-04-03T04:07:54;3.00;98.50
1379;DHT22;683;48.738;9.226;2023-04-03T04:10:22;2.90;98.10
1379;DHT22;683;48.738;9.226;2023-04-03T04:12:50;2.90;98.30
1379;DHT22;683;48.738;9.226;2023-04-03T04:15:22;3.00;98.30
1379;DHT22;683;48.738;9.226;2023-04-03T04:17:52;3.00;98.10
1379;DHT22;683;48.738;9.226;2023-04-03T04:20:20;2.90;97.90
1379;DHT22;683;48.738;9.226;2023-04-03T04:22:49;2.90;97.60
1379;DHT22;683;48.738;9.226;2023-04-03T04:25:18;3.00;97.50
1379;DHT22;683;48.738;9.226;2023-04-03T04:27:47;3.00;97.00
1379;DHT22;683;48.738;9.226;2023-04-03T04:30:17;3.00;97.10
1379;DHT22;683;48.738;9.226;2023-04-03T04:32:47;3.00;96.60
1379;DHT22;683;48.738;9.226;2023-04-03T04:35:15;3.00;96.60
1379;DHT22;683;48.738;9.226;2023-04-03T04:37:44;3.00;96.70
1379;DHT22;683;48.738;9.226;2023-04-03T04:40:13;3.00;96.40
1379;DHT22;683;48.738;9.226;2023-04-03T04:42:44;3.00;96.30
1379;DHT22;683;48.738;9.226;2023-04-03T04:45:11;3.00;96.30
1379;DHT22;683;48.738;9.226;2023-04-03T04:47:40;3.00;96.30
1379;DHT22;683;48.738;9.226;2023-04-03T04:50:11;3.00;95.90
1379;DHT22;683;48.738;9.226;2023-04-03T04:52:41;3.00;95.70
1379;DHT22;683;48.738;9.226;2023-04-03T04:55:09;3.00;95.30
1379;DHT22;683;48.738;9.226;2023-04-03T04:57:37;2.90;95.10
1379;DHT22;683;48.738;9.226;2023-04-03T05:00:06;3.00;95.20
1379;DHT22;683;48.738;9.226;2023-04-03T05:02:34;3.00;95.30
1379;DHT22;683;48.738;9.226;2023-04-03T05:05:01;3.00;95.50
1379;DHT22;683;48.738;9.226;2023-04-03T05:07:31;3.00;95.40
1379;DHT22;683;48.738;9.226;2023-04-03T05:09:59;3.00;95.10
1379;DHT22;683;48.738;9.226;2023-04-03T05:12:27;3.00;95.00
1379;DHT22;683;48.738;9.226;2023-04-03T05:15:00;3.00;94.90
1379;DHT22;683;48.738;9.226;2023-04-03T05:17:29;3.00;94.70
1379;DHT22;683;48.738;9.226;2023-04-03T05:19:57;3.10;94.80
1379;DHT22;683;48.738;9.226;2023-04-03T05:22:26;3.10;94.50
1379;DHT22;683;48.738;9.226;2023-04-03T05:24:58;3.10;94.60
1379;DHT22;683;48.738;9.226;2023-04-03T05:27:26;3.10;94.40
1379;DHT22;683;48.738;9.226;2023-04-03T05:29:56;3.10;94.50
1379;DHT22;683;48.738;9.226;2023-04-03T05:32:26;3.20;94.70
1379;DHT22;683;48.738;9.226;2023-04-03T05:35:13;3.20;94.70
1379;DHT22;683;48.738;9.226;2023-04-03T05:37:44;3.20;94.50
1379;DHT22;683;48.738;9.226;2023-04-03T05:40:19;3.20;94.50
1379;DHT22;683;48.738;9.226;2023-04-03T05:42:53;3.20;94.60
1379;DHT22;683;48.738;9.226;2023-04-03T05:45:26;3.30;94.70
1379;DHT22;683;48.738;9.226;2023-04-03T05:47:54;3.30;94.50
1379;DHT22;683;48.738;9.226;2023-04-03T05:50:22;3.20;94.60
1379;DHT22;683;48.738;9.226;2023-04-03T05:52:54;3.30;94.60
1379;DHT22;683;48.738;9.226;2023-04-03T05:55:23;3.20;94.70
1379;DHT22;683;48.738;9.226;2023-04-03T05:57:51;3.20;94.50
1379;DHT22;683;48.738;9.226;2023-04-03T06:00:21;3.10;94.80
1379;DHT22;683;48.738;9.226;2023-04-03T06:02:58;3.10;95.20
1379;DHT22;683;48.738;9.226;2023-04-03T06:05:25;3.00;95.10
1379;DHT22;683;48.738;9.226;2023-04-03T06:07:53;3.00;95.20
1379;DHT22;683;48.738;9.226;2023-04-03T06:10:22;2.90;95.40
1379;DHT22;683;48.738;9.226;2023-04-03T06:12:52;2.90;95.70
1379;DHT22;683;48.738;9.226;2023-04-03T06:15:21;2.90;95.50
1379;DHT22;683;48.738;9.226;2023-04-03T06:17:48;3.00;95.60
1379;DHT22;683;48.738;9.226;2023-04-03T06:20:17;3.00;95.70
1379;DHT22;683;48.738;9.226;2023-04-03T06:22:45;3.00;95.40
1379;DHT22;683;48.738;9.226;2023-04-03T06:25:12;3.00;95.40
1379;DHT22;683;48.738;9.226;2023-04-03T06:27:39;3.10;95.40
1379;DHT22;683;48.738;9.226;2023-04-03T06:30:09;3.10;95.30
1379;DHT22;683;48.738;9.226;2023-04-03T06:32:40;3.20;95.30
1379;DHT22;683;48.738;9.226;2023-04-03T06:35:11;3.20;95.60
1379;DHT22;683;48.738;9.226;2023-04-03T06:37:42;3.40;95.90
1379;DHT22;683;48.738;9.226;2023-04-03T06:40:17;3.40;95.50
1379;DHT22;683;48.738;9.226;2023-04-03T06:42:47;3.50;95.80
1379;DHT22;683;48.738;9.226;2023-04-03T06:45:17;3.60;95.70
1379;DHT22;683;48.738;9.226;2023-04-03T06:47:45;3.70;95.30
1379;DHT22;683;48.738;9.226;2023-04-03T06:50:13;3.80;95.30
1379;DHT22;683;48.738;9.226;2023-04-03T06:52:42;3.90;95.10
1379;DHT22;683;48.738;9.226;2023-04-03T06:55:10;3.90;94.60
1379;DHT22;683;48.738;9.226;2023-04-03T06:57:37;4.00;95.00
1379;DHT22;683;48.738;9.226;2023-04-03T07:00:07;4.00;94.20
1379;DHT22;683;48.738;9.226;2023-04-03T07:02:35;4.00;94.40
1379;DHT22;683;48.738;9.226;2023-04-03T07:05:03;4.10;94.30
1379;DHT22;683;48.738;9.226;2023-04-03T07:07:31;4.10;94.40
1379;DHT22;683;48.738;9.226;2023-04-03T07:10:03;4.10;94.40
1379;DHT22;683;48.738;9.226;2023-04-03T07:14:58;4.30;94.00
1379;DHT22;683;48.738;9.226;2023-04-03T07:17:27;4.40;94.00
1379;DHT22;683;48.738;9.226;2023-04-03T07:19:54;4.40;93.90
1379;DHT22;683;48.738;9.226;2023-04-03T07:22:21;4.50;94.00
1379;DHT22;683;48.738;9.226;2023-04-03T07:24:51;4.50;93.90
1379;DHT22;683;48.738;9.226;2023-04-03T07:27:20;4.60;93.60
1379;DHT22;683;48.738;9.226;2023-04-03T07:29:47;4.60;93.90
1379;DHT22;683;48.738;9.226;2023-04-03T07:32:15;4.60;93.50
1379;DHT22;683;48.738;9.226;2023-04-03T07:34:43;4.70;93.50
1379;DHT22;683;48.738;9.226;2023-04-03T07:37:10;4.80;93.00
1379;DHT22;683;48.738;9.226;2023-04-03T07:39:38;4.80;93.30
1379;DHT22;683;48.738;9.226;2023-04-03T07:42:06;4.80;93.20
1379;DHT22;683;48.738;9.226;2023-04-03T07:44:35;4.90;93.10
1379;DHT22;683;48.738;9.226;2023-04-03T07:47:04;4.90;93.00
1379;DHT22;683;48.738;9.226;2023-04-03T07:49:36;5.00;92.80
1379;DHT22;683;48.738;9.226;2023-04-03T07:52:07;5.10;92.80
1379;DHT22;683;48.738;9.226;2023-04-03T07:54:35;5.20;92.80
1379;DHT22;683;48.738;9.226;2023-04-03T07:57:03;5.20;93.10
1379;DHT22;683;48.738;9.226;2023-04-03T07:59:31;5.40;93.10
1379;DHT22;683;48.738;9.226;2023-04-03T08:01:59;5.50;92.60
1379;DHT22;683;48.738;9.226;2023-04-03T08:04:26;5.50;91.90
1379;DHT22;683;48.738;9.226;2023-04-03T08:06:54;5.70;91.80
1379;DHT22;683;48.738;9.226;2023-04-03T08:09:21;5.90;91.50
1379;DHT22;683;48.738;9.226;2023-04-03T08:11:48;6.00;91.70
1379;DHT22;683;48.738;9.226;2023-04-03T08:14:19;6.10;91.10
1379;DHT22;683;48.738;9.226;2023-04-03T08:16:48;6.10;91.20
1379;DHT22;683;48.738;9.226;2023-04-03T08:19:17;6.10;91.00
1379;DHT22;683;48.738;9.226;2023-04-03T08:21:44;6.10;90.70
1379;DHT22;683;48.738;9.226;2023-04-03T08:24:12;6.10;90.60
1379;DHT22;683;48.738;9.226;2023-04-03T08:26:41;6.10;90.50
1379;DHT22;683;48.738;9.226;2023-04-03T08:29:11;6.20;90.80
1379;DHT22;683;48.738;9.226;2023-04-03T08:31:39;6.30;91.00
1379;DHT22;683;48.738;9.226;2023-04-03T08:34:06;6.40;90.60
1379;DHT22;683;48.738;9.226;2023-04-03T08:36:35;6.50;90.20
1379;DHT22;683;48.738;9.226;2023-04-03T08:39:05;6.60;91.10
1379;DHT22;683;48.738;9.226;2023-04-03T08:41:35;6.70;90.40
1379;DHT22;683;48.738;9.226;2023-04-03T08:44:14;6.70;90.00
1379;DHT22;683;48.738;9.226;2023-04-03T08:46:58;6.90;90.90
1379;DHT22;683;48.738;9.226;2023-04-03T08:49:31;6.90;90.10
1379;DHT22;683;48.738;9.226;2023-04-03T08:52:03;6.90;89.30
1379;DHT22;683;48.738;9.226;2023-04-03T08:54:46;6.90;89.00
1379;DHT22;683;48.738;9.226;2023-04-03T08:57:15;7.10;88.80
1379;DHT22;683;48.738;9.226;2023-04-03T08:59:43;7.30;88.90
1379;DHT22;683;48.738;9.226;2023-04-03T09:02:23;7.30;88.00
1379;DHT22;683;48.738;9.226;2023-04-03T09:04:52;7.30;88.70
1379;DHT22;683;48.738;9.226;2023-04-03T09:07:25;7.40;87.40
1379;DHT22;683;48.738;9.226;2023-04-03T09:09:59;7.50;87.30
1379;DHT22;683;48.738;9.226;2023-04-03T09:12:34;7.60;86.30
1379;DHT22;683;48.738;9.226;2023-04-03T09:15:10;7.60;87.30
1379;DHT22;683;48.738;9.226;2023-04-03T09:17:45;7.60;86.70
1379;DHT22;683;48.738;9.226;2023-04-03T09:20:21;7.70;86.40
1379;DHT22;683;48.738;9.226;2023-04-03T09:22:53;7.80;85.30
1379;DHT22;683;48.738;9.226;2023-04-03T09:25:23;7.90;84.30
1379;DHT22;683;48.738;9.226;2023-04-03T09:27:52;7.90;83.70
1379;DHT22;683;48.738;9.226;2023-04-03T09:30:21;7.90;83.30
1379;DHT22;683;48.738;9.226;2023-04-03T09:32:50;8.00;82.20
1379;DHT22;683;48.738;9.226;2023-04-03T09:35:21;8.20;82.80
1379;DHT22;683;48.738;9.226;2023-04-03T09:37:50;8.10;83.30
1379;DHT22;683;48.738;9.226;2023-04-03T09:40:34;8.10;82.70
1379;DHT22;683;48.738;9.226;2023-04-03T09:43:22;8.00;82.10
1379;DHT22;683;48.738;9.226;2023-04-03T09:45:51;7.90;82.90
1379;DHT22;683;48.738;9.226;2023-04-03T09:48:20;7.90;82.30
1379;DHT22;683;48.738;9.226;2023-04-03T09:51:00;7.70;82.50
1379;DHT22;683;48.738;9.226;2023-04-03T09:53:35;7.60;82.90
1379;DHT22;683;48.738;9.226;2023-04-03T09:56:19;7.50;83.00
1379;DHT22;683;48.738;9.226;2023-04-03T09:58:52;7.30;82.80
1379;DHT22;683;48.738;9.226;2023-04-03T10:01:33;7.20;83.40
1379;DHT22;683;48.738;9.226;2023-04-03T10:04:07;7.20;83.80
1379;DHT22;683;48.738;9.226;2023-04-03T10:06:36;7.30;83.90
1379;DHT22;683;48.738;9.226;2023-04-03T10:09:17;7.40;82.00
1379;DHT22;683;48.738;9.226;2023-04-03T10:12:08;7.30;81.60
1379;DHT22;683;48.738;9.226;2023-04-03T10:14:38;7.10;81.70
1379;DHT22;683;48.738;9.226;2023-04-03T10:17:15;6.90;81.40
1379;DHT22;683;48.738;9.226;2023-04-03T10:19:48;6.80;81.40
1379;DHT22;683;48.738;9.226;2023-04-03T10:22:21;6.70;81.90
1379;DHT22;683;48.738;9.226;2023-04-03T10:24:58;6.70;81.90
1379;DHT22;683;48.738;9.226;2023-04-03T10:27:41;6.80;82.90
1379;DHT22;683;48.738;9.226;2023-04-03T10:30:20;6.90;83.00
1379;DHT22;683;48.738;9.226;2023-04-03T10:32:58;7.10;82.00
1379;DHT22;683;48.738;9.226;2023-04-03T10:35:37;7.20;80.40
1379;DHT22;683;48.738;9.226;2023-04-03T10:38:14;7.30;79.30
1379;DHT22;683;48.738;9.226;2023-04-03T10:40:50;7.20;78.50
1379;DHT22;683;48.738;9.226;2023-04-03T10:43:28;7.20;79.00
1379;DHT22;683;48.738;9.226;2023-04-03T10:46:01;7.00;80.20
1379;DHT22;683;48.738;9.226;2023-04-03T10:48:40;7.10;79.70
1379;DHT22;683;48.738;9.226;2023-04-03T10:51:23;7.10;80.50
1379;DHT22;683;48.738;9.226;2023-04-03T10:53:56;7.20;80.40
1379;DHT22;683;48.738;9.226;2023-04-03T10:56:32;7.10;79.80
1379;DHT22;683;48.738;9.226;2023-04-03T10:59:21;7.00;79.80
1379;DHT22;683;48.738;9.226;2023-04-03T11:01:52;6.90;79.90
1379;DHT22;683;48.738;9.226;2023-04-03T11:04:21;6.80;79.80
1379;DHT22;683;48.738;9.226;2023-04-03T11:06:56;6.80;80.30
1379;DHT22;683;48.738;9.226;2023-04-03T11:09:26;6.70;79.60
1379;DHT22;683;48.738;9.226;2023-04-03T11:12:02;6.60;79.10
1379;DHT22;683;48.738;9.226;2023-04-03T11:14:34;6.70;79.90
1379;DHT22;683;48.738;9.226;2023-04-03T11:17:11;6.90;78.80
1379;DHT22;683;48.738;9.226;2023-04-03T11:19:50;7.10;79.50
1379;DHT22;683;48.738;9.226;2023-04-03T11:22:23;7.10;79.30
1379;DHT22;683;48.738;9.226;2023-04-03T11:25:00;7.20;78.80
1379;DHT22;683;48.738;9.226;2023-04-03T11:27:37;7.20;78.50
1379;DHT22;683;48.738;9.226;2023-04-03T11:30:14;7.20;76.70
1379;DHT22;683;48.738;9.226;2023-04-03T11:33:09;7.10;75.10
1379;DHT22;683;48.738;9.226;2023-04-03T11:35:43;7.00;75.20
1379;DHT22;683;48.738;9.226;2023-04-03T11:38:19;7.00;75.40
1379;DHT22;683;48.738;9.226;2023-04-03T11:40:49;7.00;73.80
1379;DHT22;683;48.738;9.226;2023-04-03T11:43:23;7.00;73.20
1379;DHT22;683;48.738;9.226;2023-04-03T11:45:56;7.10;71.60
1379;DHT22;683;48.738;9.226;2023-04-03T11:48:50;7.20;71.70
1379;DHT22;683;48.738;9.226;2023-04-03T11:51:40;7.30;70.50
1379;DHT22;683;48.738;9.226;2023-04-03T11:58:01;7.70;69.40
1379;DHT22;683;48.738;9.226;2023-04-03T12:01:04;7.80;70.30
1379;DHT22;683;48.738;9.226;2023-04-03T12:03:56;7.70;70.80
1379;DHT22;683;48.738;9.226;2023-04-03T12:07:01;7.70;70.00
1379;DHT22;683;48.738;9.226;2023-04-03T12:12:39;7.50;70.40
1379;DHT22;683;48.738;9.226;2023-04-03T12:21:13;7.20;72.30
1379;DHT22;683;48.738;9.226;2023-04-03T12:24:16;7.40;72.90
1379;DHT22;683;48.738;9.226;2023-04-03T12:27:01;7.40;72.10
1379;DHT22;683;48.738;9.226;2023-04-03T12:29:36;7.40;71.40
1379;DHT22;683;48.738;9.226;2023-04-03T12:32:15;7.40;71.40
1379;DHT22;683;48.738;9.226;2023-04-03T12:34:58;7.50;70.70
1379;DHT22;683;48.738;9.226;2023-04-03T12:37:48;7.50;71.40
1379;DHT22;683;48.738;9.226;2023-04-03T12:40:26;7.40;71.70
1379;DHT22;683;48.738;9.226;2023-04-03T12:43:04;7.40;70.00
1379;DHT22;683;48.738;9.226;2023-04-03T12:45:43;7.30;71.10
1379;DHT22;683;48.738;9.226;2023-04-03T12:48:16;7.30;72.00
1379;DHT22;683;48.738;9.226;2023-04-03T12:50:45;7.20;71.20
1379;DHT22;683;48.738;9.226;2023-04-03T12:53:18;7.30;70.80
1379;DHT22;683;48.738;9.226;2023-04-03T12:55:46;7.50;71.00
1379;DHT22;683;48.738;9.226;2023-04-03T12:58:15;7.70;71.20
1379;DHT22;683;48.738;9.226;2023-04-03T13:00:45;7.90;69.20
1379;DHT22;683;48.738;9.226;2023-04-03T13:03:23;8.10;65.90
1379;DHT22;683;48.738;9.226;2023-04-03T13:05:54;8.30;64.20
1379;DHT22;683;48.738;9.226;2023-04-03T13:08:26;8.50;65.20
1379;DHT22;683;48.738;9.226;2023-04-03T13:10:57;8.70;64.80
1379;DHT22;683;48.738;9.226;2023-04-03T13:13:25;9.10;65.90
1379;DHT22;683;48.738;9.226;2023-04-03T13:15:52;9.40;65.40
1379;DHT22;683;48.738;9.226;2023-04-03T13:18:38;9.60;64.10
1379;DHT22;683;48.738;9.226;2023-04-03T13:21:08;10.00;64.40
1379;DHT22;683;48.738;9.226;2023-04-03T13:23:42;10.20;64.50
1379;DHT22;683;48.738;9.226;2023-04-03T13:26:10;10.30;62.80
1379;DHT22;683;48.738;9.226;2023-04-03T13:28:44;10.50;61.60
1379;DHT22;683;48.738;9.226;2023-04-03T13:31:21;10.20;61.00
1379;DHT22;683;48.738;9.226;2023-04-03T13:33:57;9.90;62.40
1379;DHT22;683;48.738;9.226;2023-04-03T13:36:28;9.70;63.20
1379;DHT22;683;48.738;9.226;2023-04-03T13:39:05;9.60;62.80
1379;DHT22;683;48.738;9.226;2023-04-03T13:41:34;9.50;64.20
1379;DHT22;683;48.738;9.226;2023-04-03T13:44:26;9.60;63.90
1379;DHT22;683;48.738;9.226;2023-04-03T13:46:56;9.60;63.10
1379;DHT22;683;48.738;9.226;2023-04-03T13:49:31;9.60;63.10
1379;DHT22;683;48.738;9.226;2023-04-03T13:52:02;9.80;63.90
1379;DHT22;683;48.738;9.226;2023-04-03T13:54:33;9.90;64.10
1379;DHT22;683;48.738;9.226;2023-04-03T13:57:02;9.80;62.90
1379;DHT22;683;48.738;9.226;2023-04-03T13:59:33;9.70;61.60
1379;DHT22;683;48.738;9.226;2023-04-03T14:02:15;9.70;62.40
1379;DHT22;683;48.738;9.226;2023-04-03T14:04:53;9.70;61.50
1379;DHT22;683;48.738;9.226;2023-04-03T14:07:24;9.60;59.50
1379;DHT22;683;48.738;9.226;2023-04-03T14:09:53;9.40;59.20
1379;DHT22;683;48.738;9.226;2023-04-03T14:12:25;9.10;60.60
1379;DHT22;683;48.738;9.226;2023-04-03T14:14:55;8.90;62.00
1379;DHT22;683;48.738;9.226;2023-04-03T14:17:25;8.70;62.30
1379;DHT22;683;48.738;9.226;2023-04-03T14:19:53;8.50;62.20
1379;DHT22;683;48.738;9.226;2023-04-03T14:22:23;8.40;63.10
1379;DHT22;683;48.738;9.226;2023-04-03T14:24:53;8.30;63.50
1379;DHT22;683;48.738;9.226;2023-04-03T14:27:24;8.20;63.40
1379;DHT22;683;48.738;9.226;2023-04-03T14:29:53;8.10;63.60
1379;DHT22;683;48.738;9.226;2023-04-03T14:32:23;8.10;63.90
1379;DHT22;683;48.738;9.226;2023-04-03T14:34:51;8.10;63.20
1379;DHT22;683;48.738;9.226;2023-04-03T14:37:21;8.50;63.40
1379;DHT22;683;48.738;9.226;2023-04-03T14:39:49;10.10;60.40
1379;DHT22;683;48.738;9.226;2023-04-03T14:42:20;12.70;56.80
1379;DHT22;683;48.738;9.226;2023-04-03T14:44:48;15.20;52.40
1379;DHT22;683;48.738;9.226;2023-04-03T14:47:17;16.50;47.80
1379;DHT22;683;48.738;9.226;2023-04-03T14:49:46;16.60;45.40
1379;DHT22;683;48.738;9.226;2023-04-03T14:52:18;16.00;44.70
1379;DHT22;683;48.738;9.226;2023-04-03T14:54:48;14.90;46.80
1379;DHT22;683;48.738;9.226;2023-04-03T14:57:16;13.60;48.70
1379;DHT22;683;48.738;9.226;2023-04-03T14:59:47;12.60;50.70
1379;DHT22;683;48.738;9.226;2023-04-03T15:02:26;11.60;51.90
1379;DHT22;683;48.738;9.226;2023-04-03T15:04:53;10.70;53.00
1379;DHT22;683;48.738;9.226;2023-04-03T15:07:24;10.20;54.40
1379;DHT22;683;48.738;9.226;2023-04-03T15:09:52;9.80;55.80
1379;DHT22;683;48.738;9.226;2023-04-03T15:12:22;9.50;56.90
1379;DHT22;683;48.738;9.226;2023-04-03T15:14:50;9.30;57.70
1379;DHT22;683;48.738;9.226;2023-04-03T15:17:20;9.20;57.90
1379;DHT22;683;48.738;9.226;2023-04-03T15:19:48;9.20;58.30
1379;DHT22;683;48.738;9.226;2023-04-03T15:22:18;9.30;57.90
1379;DHT22;683;48.738;9.226;2023-04-03T15:24:46;9.20;57.40
1379;DHT22;683;48.738;9.226;2023-04-03T15:27:13;9.20;58.40
1379;DHT22;683;48.738;9.226;2023-04-03T15:29:42;9.20;58.50
1379;DHT22;683;48.738;9.226;2023-04-03T15:32:11;9.10;58.10
1379;DHT22;683;48.738;9.226;2023-04-03T15:34:39;9.20;56.40
1379;DHT22;683;48.738;9.226;2023-04-03T15:37:06;9.10;56.30
1379;DHT22;683;48.738;9.226;2023-04-03T15:39:37;8.80;56.50
1379;DHT22;683;48.738;9.226;2023-04-03T15:42:05;8.50;57.10
1379;DHT22;683;48.738;9.226;2023-04-03T15:44:33;8.30;57.80
1379;DHT22;683;48.738;9.226;2023-04-03T15:47:01;8.10;57.90
1379;DHT22;683;48.738;9.226;2023-04-03T15:49:31;8.00;58.20
1379;DHT22;683;48.738;9.226;2023-04-03T15:51:59;8.10;58.80
1379;DHT22;683;48.738;9.226;2023-04-03T15:54:27;8.30;58.10
1379;DHT22;683;48.738;9.226;2023-04-03T15:56:56;8.30;58.00
1379;DHT22;683;48.738;9.226;2023-04-03T15:59:23;8.50;57.20
1379;DHT22;683;48.738;9.226;2023-04-03T16:01:53;8.60;57.50
1379;DHT22;683;48.738;9.226;2023-04-03T16:04:21;8.50;57.40
1379;DHT22;683;48.738;9.226;2023-04-03T16:06:50;8.50;58.10
1379;DHT22;683;48.738;9.226;2023-04-03T16:09:20;8.60;57.60
1379;DHT22;683;48.738;9.226;2023-04-03T16:11:47;8.60;57.80
1379;DHT22;683;48.738;9.226;2023-04-03T16:14:14;8.60;57.00
1379;DHT22;683;48.738;9.226;2023-04-03T16:16:41;8.50;56.30
1379;DHT22;683;48.738;9.226;2023-04-03T16:19:09;8.40;56.20
1379;DHT22;683;48.738;9.226;2023-04-03T16:21:36;8.20;55.70
1379;DHT22;683;48.738;9.226;2023-04-03T16:24:05;8.00;55.60
1379;DHT22;683;48.738;9.226;2023-04-03T16:26:33;7.80;55.80
1379;DHT22;683;48.738;9.226;2023-04-03T16:29:00;7.60;55.90
1379;DHT22;683;48.738;9.226;2023-04-03T16:31:32;7.40;56.40
1379;DHT22;683;48.738;9.226;2023-04-03T16:34:00;7.20;57.00
1379;DHT22;683;48.738;9.226;2023-04-03T16:36:28;7.90;56.40
1379;DHT22;683;48.738;9.226;2023-04-03T16:38:55;8.50;54.60
1379;DHT22;683;48.738;9.226;2023-04-03T16:41:24;8.80;54.60
1379;DHT22;683;48.738;9.226;2023-04-03T16:43:51;9.10;54.00
1379;DHT22;683;48.738;9.226;2023-04-03T16:46:20;9.00;54.00
1379;DHT22;683;48.738;9.226;2023-04-03T16:48:50;8.80;54.90
1379;DHT22;683;48.738;9.226;2023-04-03T16:51:19;8.70;55.40
1379;DHT22;683;48.738;9.226;2023-04-03T16:53:46;8.50;55.30
1379;DHT22;683;48.738;9.226;2023-04-03T16:56:16;8.30;55.60
1379;DHT22;683;48.738;9.226;2023-04-03T16:58:45;8.00;56.50
1379;DHT22;683;48.738;9.226;2023-04-03T17:01:14;7.70;57.20
1379;DHT22;683;48.738;9.226;2023-04-03T17:03:45;7.40;57.00
1379;DHT22;683;48.738;9.226;2023-04-03T17:06:16;7.30;57.40
1379;DHT22;683;48.738;9.226;2023-04-03T17:08:44;7.10;57.50
1379;DHT22;683;48.738;9.226;2023-04-03T17:11:25;7.00;58.30
1379;DHT22;683;48.738;9.226;2023-04-03T17:13:54;6.90;58.90
1379;DHT22;683;48.738;9.226;2023-04-03T17:16:22;6.80;59.60
1379;DHT22;683;48.738;9.226;2023-04-03T17:18:50;6.70;59.60
1379;DHT22;683;48.738;9.226;2023-04-03T17:21:19;6.60;60.30